createdAt,value
2022-10-07T00:00:33.495Z,98.68
2022-10-07T00:01:33.605Z,98.68
2022-10-07T00:02:33.562Z,98.58
2022-10-07T00:03:33.518Z,98.58
2022-10-07T00:04:33.475Z,98.58
2022-10-07T00:05:33.475Z,98.58
2022-10-07T00:06:33.406Z,98.58
2022-10-07T00:07:33.457Z,98.58
2022-10-07T00:08:33.402Z,98.58
2022-10-07T00:09:33.395Z,98.58
2022-10-07T00:10:33.461Z,98.53
2022-10-07T00:11:33.368Z,98.53
2022-10-07T00:12:33.381Z,98.53
2022-10-07T00:13:33.345Z,98.53
2022-10-07T00:14:33.323Z,98.53
2022-10-07T00:15:33.387Z,98.53
2022-10-07T00:16:33.412Z,98.53
2022-10-07T00:17:33.323Z,98.53
2022-10-07T00:18:33.300Z,98.53
2022-10-07T00:19:33.283Z,98.53
2022-10-07T00:20:33.270Z,98.53
2022-10-07T00:21:33.261Z,98.53
2022-10-07T00:22:33.220Z,98.43
2022-10-07T00:23:33.232Z,98.43
2022-10-07T00:24:33.202Z,98.43
2022-10-07T00:25:33.244Z,98.43
2022-10-07T00:26:33.159Z,98.43
2022-10-07T00:27:33.148Z,98.43
2022-10-07T00:28:33.251Z,98.43
2022-10-07T00:29:33.179Z,98.33
2022-10-07T00:30:33.166Z,98.33
2022-10-07T00:31:33.173Z,98.33
2022-10-07T00:32:33.110Z,98.33
2022-10-07T00:33:33.148Z,98.33
2022-10-07T00:34:33.072Z,98.22
2022-10-07T00:35:33.020Z,98.22
2022-10-07T00:36:33.064Z,98.22
2022-10-07T00:37:32.971Z,98.12
2022-10-07T00:38:32.914Z,98.02
2022-10-07T00:39:32.913Z,97.97
2022-10-07T00:40:32.910Z,97.87
2022-10-07T00:41:32.894Z,97.87
2022-10-07T00:42:32.863Z,97.77
2022-10-07T00:43:32.853Z,97.77
2022-10-07T00:44:32.842Z,97.77
2022-10-07T00:45:32.986Z,97.66
2022-10-07T00:46:32.812Z,97.66
2022-10-07T00:47:32.842Z,97.66
2022-10-07T00:48:32.800Z,97.56
2022-10-07T00:49:32.780Z,97.56
2022-10-07T00:50:32.800Z,97.46
2022-10-07T00:51:32.761Z,97.46
2022-10-07T00:52:32.770Z,97.36
2022-10-07T00:53:32.731Z,97.36
2022-10-07T00:54:32.710Z,97.25
2022-10-07T00:55:32.718Z,97.25
2022-10-07T00:56:32.748Z,97.25
2022-10-07T00:57:32.677Z,97.15
2022-10-07T00:58:32.697Z,97.15
2022-10-07T00:59:32.662Z,97.15
2022-10-07T01:00:32.647Z,97.05
2022-10-07T01:01:32.723Z,97.05
2022-10-07T01:02:32.670Z,97.05
2022-10-07T01:03:32.658Z,97.05
2022-10-07T01:04:32.617Z,96.95
2022-10-07T01:05:32.602Z,96.95
2022-10-07T01:06:32.615Z,97.05
2022-10-07T01:07:32.566Z,97.05
2022-10-07T01:08:32.573Z,97.15
2022-10-07T01:09:32.526Z,97.15
2022-10-07T01:10:32.517Z,97.11
2022-10-07T01:11:32.495Z,97.21
2022-10-07T01:12:32.484Z,97.21
2022-10-07T01:13:32.513Z,97.31
2022-10-07T01:14:32.466Z,97.31
2022-10-07T01:15:32.463Z,97.31
2022-10-07T01:16:32.465Z,97.31
2022-10-07T01:17:32.457Z,97.41
2022-10-07T01:18:32.421Z,97.41
2022-10-07T01:19:32.432Z,97.41
2022-10-07T01:20:32.384Z,97.41
2022-10-07T01:21:32.402Z,97.41
2022-10-07T01:22:32.383Z,97.41
2022-10-07T01:23:32.373Z,97.41
2022-10-07T01:24:32.330Z,97.41
2022-10-07T01:25:32.351Z,97.41
2022-10-07T01:26:32.438Z,97.41
2022-10-07T01:27:32.370Z,97.41
2022-10-07T01:28:32.609Z,97.31
2022-10-07T01:33:19.087Z,96.29
2022-10-07T01:34:18.865Z,96.19
2022-10-07T01:35:18.856Z,96.19
2022-10-07T01:36:18.837Z,96.19
2022-10-07T01:37:18.849Z,96.19
2022-10-07T01:38:18.815Z,96.19
2022-10-07T01:39:18.809Z,96.19
2022-10-07T01:40:18.795Z,96.19
2022-10-07T01:41:18.811Z,96.19
2022-10-07T01:42:18.764Z,96.19
2022-10-07T01:43:18.782Z,96.19
2022-10-07T01:44:18.742Z,96.19
2022-10-07T01:45:18.724Z,96.19
2022-10-07T01:46:18.763Z,96.19
2022-10-07T01:47:18.702Z,96.29
2022-10-07T01:48:18.739Z,96.19
2022-10-07T01:49:18.673Z,96.19
2022-10-07T01:50:18.667Z,96.19
2022-10-07T01:51:18.678Z,96.19
2022-10-07T01:52:18.660Z,96.19
2022-10-07T01:53:18.682Z,96.29
2022-10-07T01:54:18.640Z,96.29
2022-10-07T01:55:18.592Z,96.19
2022-10-07T01:56:18.582Z,96.19
2022-10-07T01:57:18.570Z,96.19
2022-10-07T01:58:18.578Z,96.19
2022-10-07T01:59:18.567Z,96.29
2022-10-07T02:00:18.542Z,96.29
2022-10-07T02:01:18.604Z,96.19
2022-10-07T02:02:18.559Z,96.19
2022-10-07T02:03:18.578Z,96.19
2022-10-07T02:04:18.510Z,96.08
2022-10-07T02:05:18.473Z,96.08
2022-10-07T02:06:18.477Z,96.19
2022-10-07T02:07:18.447Z,96.19
2022-10-07T02:08:18.427Z,96.19
2022-10-07T02:09:18.431Z,96.19
2022-10-07T02:10:18.441Z,96.19
2022-10-07T02:11:18.394Z,96.08
2022-10-07T02:12:18.376Z,95.98
2022-10-07T02:13:18.393Z,95.98
2022-10-07T02:14:18.375Z,96.08
2022-10-07T02:15:18.342Z,95.98
2022-10-07T02:16:18.383Z,95.98
2022-10-07T02:17:18.419Z,95.88
2022-10-07T02:18:18.297Z,95.88
2022-10-07T02:19:18.285Z,95.88
2022-10-07T02:20:18.274Z,95.88
2022-10-07T02:21:18.293Z,95.88
2022-10-07T02:22:18.253Z,95.88
2022-10-07T02:23:18.240Z,95.78
2022-10-07T02:24:18.243Z,95.67
2022-10-07T02:25:18.222Z,95.67
2022-10-07T02:26:18.203Z,95.57
2022-10-07T02:27:18.204Z,95.47
2022-10-07T02:28:18.247Z,95.47
2022-10-07T02:29:18.161Z,95.47
2022-10-07T02:30:18.140Z,95.37
2022-10-07T02:31:18.258Z,95.37
2022-10-07T02:32:18.151Z,95.17
2022-10-07T02:33:18.144Z,94.96
2022-10-07T02:34:20.095Z,94.75
2022-10-07T02:35:18.089Z,94.65
2022-10-07T02:36:18.070Z,94.65
2022-10-07T02:37:18.059Z,94.75
2022-10-07T02:38:18.048Z,94.85
2022-10-07T02:39:18.033Z,95.06
2022-10-07T02:40:18.011Z,95.17
2022-10-07T02:41:17.998Z,95.37
2022-10-07T02:42:17.987Z,95.47
2022-10-07T02:43:17.989Z,95.67
2022-10-07T02:44:17.966Z,95.78
2022-10-07T02:45:17.947Z,95.88
2022-10-07T02:46:17.973Z,95.88
2022-10-07T02:47:17.928Z,95.88
2022-10-07T02:48:17.907Z,95.88
2022-10-07T02:49:17.915Z,95.88
2022-10-07T02:50:17.886Z,95.88
2022-10-07T02:51:21.050Z,95.88
2022-10-07T02:52:17.866Z,95.88
2022-10-07T02:53:17.856Z,95.88
2022-10-07T02:54:17.826Z,95.98
2022-10-07T02:55:17.845Z,96.08
2022-10-07T02:56:17.825Z,96.08
2022-10-07T02:57:17.794Z,96.19
2022-10-07T02:58:17.822Z,96.08
2022-10-07T02:59:17.788Z,96.08
2022-10-07T03:00:17.757Z,95.98
2022-10-07T03:01:17.788Z,95.88
2022-10-07T03:02:17.762Z,95.88
2022-10-07T03:03:17.800Z,95.88
2022-10-07T03:04:17.769Z,95.88
2022-10-07T03:05:17.701Z,95.88
2022-10-07T03:06:17.680Z,95.88
2022-10-07T03:07:17.681Z,95.88
2022-10-07T03:08:17.653Z,95.88
2022-10-07T03:09:17.652Z,95.88
2022-10-07T03:10:17.647Z,95.88
2022-10-07T03:11:17.633Z,95.88
2022-10-07T03:12:17.637Z,95.88
2022-10-07T03:13:17.599Z,95.88
2022-10-07T03:14:17.577Z,95.88
2022-10-07T03:15:17.611Z,95.98
2022-10-07T03:16:17.612Z,95.98
2022-10-07T03:17:17.579Z,95.88
2022-10-07T03:18:17.535Z,95.88
2022-10-07T03:19:17.526Z,95.88
2022-10-07T03:20:17.497Z,95.78
2022-10-07T03:21:17.508Z,95.78
2022-10-07T03:22:17.466Z,95.78
2022-10-07T03:23:17.477Z,95.78
2022-10-07T03:24:17.463Z,95.78
2022-10-07T03:25:17.446Z,95.78
2022-10-07T03:26:17.416Z,95.78
2022-10-07T03:27:17.435Z,95.78
2022-10-07T03:28:17.457Z,95.78
2022-10-07T03:29:17.396Z,95.78
2022-10-07T03:30:20.115Z,95.78
2022-10-07T03:31:17.480Z,95.78
2022-10-07T03:32:17.376Z,95.78
2022-10-07T03:33:17.353Z,95.67
2022-10-07T03:34:17.313Z,95.67
2022-10-07T03:35:17.312Z,95.67
2022-10-07T03:36:17.318Z,95.57
2022-10-07T03:37:17.320Z,95.57
2022-10-07T03:38:17.328Z,95.67
2022-10-07T03:39:17.260Z,95.67
2022-10-07T03:40:17.241Z,95.67
2022-10-07T03:41:17.241Z,95.57
2022-10-07T03:42:17.231Z,95.57
2022-10-07T03:43:17.221Z,95.57
2022-10-07T03:44:17.221Z,95.57
2022-10-07T03:45:17.200Z,95.57
2022-10-07T03:46:17.238Z,95.57
2022-10-07T03:47:17.183Z,95.57
2022-10-07T03:48:17.138Z,95.57
2022-10-07T03:49:17.150Z,95.37
2022-10-07T03:50:17.109Z,95.37
2022-10-07T03:51:17.108Z,95.37
2022-10-07T03:52:17.088Z,95.37
2022-10-07T03:53:17.100Z,95.37
2022-10-07T03:54:17.057Z,95.26
2022-10-07T03:55:17.086Z,95.26
2022-10-07T03:56:17.039Z,95.26
2022-10-07T03:57:17.047Z,95.37
2022-10-07T03:58:17.048Z,95.37
2022-10-07T03:59:17.015Z,95.26
2022-10-07T04:00:17.008Z,95.26
2022-10-07T04:01:17.080Z,95.26
2022-10-07T04:02:16.959Z,95.26
2022-10-07T04:03:17.019Z,95.26
2022-10-07T04:04:16.944Z,95.26
2022-10-07T04:05:16.935Z,95.26
2022-10-07T04:06:16.916Z,95.26
2022-10-07T04:07:16.917Z,95.37
2022-10-07T04:08:16.915Z,95.47
2022-10-07T04:09:16.900Z,95.57
2022-10-07T04:10:16.860Z,95.67
2022-10-07T04:11:16.843Z,95.78
2022-10-07T04:12:16.833Z,95.88
2022-10-07T04:13:16.820Z,95.88
2022-10-07T04:14:16.829Z,95.88
2022-10-07T04:15:16.851Z,95.88
2022-10-07T04:16:16.844Z,95.88
2022-10-07T04:17:16.842Z,95.78
2022-10-07T04:18:16.751Z,95.57
2022-10-07T04:19:17.387Z,95.47
2022-10-07T04:20:16.721Z,95.47
2022-10-07T04:21:16.727Z,95.37
2022-10-07T04:22:16.698Z,95.37
2022-10-07T04:23:16.690Z,95.26
2022-10-07T04:24:16.697Z,95.26
2022-10-07T04:25:16.667Z,95.26
2022-10-07T04:26:16.657Z,95.37
2022-10-07T04:27:39.740Z,95.37
2022-10-07T04:28:17.707Z,95.57
2022-10-07T04:29:16.627Z,95.47
2022-10-07T04:30:16.616Z,95.37
2022-10-07T04:31:16.669Z,95.37
2022-10-07T04:32:16.586Z,95.37
2022-10-07T04:33:16.625Z,95.37
2022-10-07T04:34:16.551Z,95.37
2022-10-07T04:35:16.536Z,95.47
2022-10-07T04:36:16.539Z,95.57
2022-10-07T04:37:16.509Z,95.57
2022-10-07T04:38:16.502Z,95.57
2022-10-07T04:39:16.498Z,95.57
2022-10-07T04:40:16.484Z,95.57
2022-10-07T04:41:16.463Z,95.57
2022-10-07T04:42:16.497Z,95.57
2022-10-07T04:43:16.443Z,95.47
2022-10-07T04:44:16.412Z,95.37
2022-10-07T04:45:16.420Z,95.26
2022-10-07T04:46:16.468Z,95.26
2022-10-07T04:47:16.434Z,95.26
2022-10-07T04:48:16.394Z,95.17
2022-10-07T04:49:16.382Z,95.17
2022-10-07T04:50:17.300Z,95.17
2022-10-07T04:51:16.330Z,95.17
2022-10-07T04:52:16.310Z,95.06
2022-10-07T04:53:16.324Z,95.17
2022-10-07T04:54:16.291Z,95.17
2022-10-07T04:55:16.273Z,95.06
2022-10-07T04:56:16.323Z,95.06
2022-10-07T04:57:16.268Z,95.17
2022-10-07T04:58:16.268Z,95.17
2022-10-07T04:59:16.223Z,95.26
2022-10-07T05:00:16.217Z,95.26
2022-10-07T05:01:16.238Z,95.37
2022-10-07T05:02:16.234Z,95.37
2022-10-07T05:03:16.177Z,95.47
2022-10-07T05:04:16.159Z,95.57
2022-10-07T05:05:16.153Z,95.67
2022-10-07T05:06:16.156Z,95.67
2022-10-07T05:07:16.185Z,95.67
2022-10-07T05:08:16.109Z,95.67
2022-10-07T05:09:16.149Z,95.57
2022-10-07T05:10:16.121Z,95.47
2022-10-07T05:11:16.065Z,95.26
2022-10-07T05:12:16.075Z,94.96
2022-10-07T05:13:16.048Z,94.75
2022-10-07T05:14:16.033Z,94.75
2022-10-07T05:15:16.088Z,94.75
2022-10-07T05:16:16.077Z,94.85
2022-10-07T05:17:15.993Z,94.96
2022-10-07T05:18:15.990Z,95.06
2022-10-07T05:19:15.974Z,95.17
2022-10-07T05:20:16.042Z,95.26
2022-10-07T05:21:15.974Z,95.37
2022-10-07T05:22:15.932Z,95.43
2022-10-07T05:23:15.933Z,95.57
2022-10-07T05:24:15.931Z,95.57
2022-10-07T05:25:15.892Z,95.67
2022-10-07T05:26:15.892Z,95.73
2022-10-07T05:27:15.853Z,95.73
2022-10-07T05:28:15.877Z,95.73
2022-10-07T05:29:15.832Z,95.63
2022-10-07T05:30:15.835Z,95.53
2022-10-07T05:31:15.862Z,95.53
2022-10-07T05:32:15.829Z,95.53
2022-10-07T05:33:15.790Z,95.53
2022-10-07T05:34:15.802Z,95.53
2022-10-07T05:35:15.790Z,95.53
2022-10-07T05:36:15.757Z,95.63
2022-10-07T05:37:15.738Z,95.63
2022-10-07T05:38:15.727Z,95.73
2022-10-07T05:39:15.750Z,95.73
2022-10-07T05:40:15.712Z,95.84
2022-10-07T05:41:15.697Z,95.84
2022-10-07T05:42:15.686Z,95.84
2022-10-07T05:43:15.723Z,95.63
2022-10-07T05:44:15.659Z,95.53
2022-10-07T05:45:15.650Z,95.32
2022-10-07T05:46:15.775Z,95.22
2022-10-07T05:47:15.607Z,95.12
2022-10-07T05:48:15.614Z,95.12
2022-10-07T05:49:15.612Z,95.22
2022-10-07T05:50:15.580Z,95.22
2022-10-07T05:51:15.576Z,95.12
2022-10-07T05:52:19.565Z,95.22
2022-10-07T05:53:15.544Z,95.22
2022-10-07T05:54:15.522Z,95.37
2022-10-07T05:55:15.505Z,95.32
2022-10-07T05:56:15.503Z,95.26
2022-10-07T05:57:15.474Z,95.22
2022-10-07T05:58:15.491Z,95.22
2022-10-07T05:59:15.481Z,95.22
2022-10-07T06:00:15.486Z,95.32
2022-10-07T06:01:15.439Z,95.32
2022-10-07T06:02:15.542Z,95.43
2022-10-07T06:03:15.503Z,95.43
2022-10-07T06:04:15.390Z,95.43
2022-10-07T06:05:15.382Z,95.43
2022-10-07T06:06:15.362Z,95.53
2022-10-07T06:07:20.225Z,95.53
2022-10-07T06:08:16.374Z,95.43
2022-10-07T06:09:15.333Z,95.43
2022-10-07T06:10:15.326Z,95.43
2022-10-07T06:11:15.312Z,95.32
2022-10-07T06:12:15.309Z,95.22
2022-10-07T06:13:15.281Z,95.12
2022-10-07T06:14:15.268Z,95.02
2022-10-07T06:15:15.248Z,95.02
2022-10-07T06:16:15.284Z,94.92
2022-10-07T06:17:15.244Z,94.92
2022-10-07T06:18:15.219Z,94.92
2022-10-07T06:19:15.217Z,95.02
2022-10-07T06:20:15.226Z,95.02
2022-10-07T06:21:15.167Z,95.02
2022-10-07T06:22:15.186Z,94.92
2022-10-07T06:23:15.166Z,94.92
2022-10-07T06:24:15.165Z,94.71
2022-10-07T06:25:15.157Z,94.60
2022-10-07T06:26:15.114Z,94.60
2022-10-07T06:27:15.127Z,94.51
2022-10-07T06:28:15.135Z,94.60
2022-10-07T06:29:15.092Z,94.51
2022-10-07T06:30:15.105Z,94.40
2022-10-07T06:31:15.140Z,94.30
2022-10-07T06:32:15.054Z,94.20
2022-10-07T06:33:15.035Z,94.30
2022-10-07T06:34:15.010Z,94.40
2022-10-07T06:35:15.014Z,94.51
2022-10-07T06:36:14.993Z,94.81
2022-10-07T06:37:14.965Z,94.81
2022-10-07T06:38:14.970Z,94.71
2022-10-07T06:39:14.947Z,94.71
2022-10-07T06:40:14.951Z,94.67
2022-10-07T06:41:14.941Z,94.77
2022-10-07T06:42:14.922Z,94.77
2022-10-07T06:43:15.001Z,94.67
2022-10-07T06:44:14.891Z,94.46
2022-10-07T06:45:14.881Z,94.26
2022-10-07T06:46:14.939Z,94.26
2022-10-07T06:47:14.853Z,94.56
2022-10-07T06:48:14.829Z,94.67
2022-10-07T06:49:14.838Z,94.67
2022-10-07T06:50:14.803Z,94.67
2022-10-07T06:51:15.059Z,94.56
2022-10-07T06:52:14.790Z,94.56
2022-10-07T06:53:14.757Z,94.56
2022-10-07T06:54:14.765Z,94.67
2022-10-07T06:55:14.801Z,94.87
2022-10-07T06:56:14.728Z,95.07
2022-10-07T06:57:40.278Z,95.13
2022-10-07T06:58:15.737Z,95.03
2022-10-07T06:59:14.698Z,95.03
2022-10-07T07:00:14.667Z,94.93
2022-10-07T07:01:14.743Z,94.62
2022-10-07T07:02:14.715Z,94.52
2022-10-07T07:03:14.644Z,94.32
2022-10-07T07:04:14.626Z,94.32
2022-10-07T07:05:14.627Z,94.32
2022-10-07T07:06:14.608Z,94.01
2022-10-07T07:07:14.578Z,93.91
2022-10-07T07:08:14.577Z,93.80
2022-10-07T07:09:14.574Z,93.80
2022-10-07T07:10:14.550Z,93.80
2022-10-07T07:11:14.523Z,93.80
2022-10-07T07:12:14.536Z,93.91
2022-10-07T07:13:14.513Z,93.70
2022-10-07T07:14:14.482Z,93.66
2022-10-07T07:15:14.470Z,93.76
2022-10-07T07:16:14.498Z,93.76
2022-10-07T07:17:14.441Z,93.96
2022-10-07T07:18:14.440Z,93.96
2022-10-07T07:19:14.420Z,93.96
2022-10-07T07:20:14.436Z,93.86
2022-10-07T07:21:14.420Z,93.96
2022-10-07T07:22:14.383Z,93.96
2022-10-07T07:23:14.398Z,93.86
2022-10-07T07:24:14.379Z,93.86
2022-10-07T07:25:14.345Z,93.96
2022-10-07T07:26:14.341Z,94.07
2022-10-07T07:27:14.347Z,93.96
2022-10-07T07:28:14.343Z,93.96
2022-10-07T07:29:14.320Z,93.96
2022-10-07T07:30:14.289Z,93.92
2022-10-07T07:31:14.310Z,93.71
2022-10-07T07:32:14.288Z,93.71
2022-10-07T07:33:14.237Z,93.71
2022-10-07T07:34:14.236Z,93.82
2022-10-07T07:35:14.226Z,94.02
2022-10-07T07:36:14.239Z,94.02
2022-10-07T07:37:14.207Z,94.02
2022-10-07T07:38:14.196Z,94.02
2022-10-07T07:39:14.155Z,94.23
2022-10-07T07:40:14.186Z,94.23
2022-10-07T07:41:14.140Z,94.12
2022-10-07T07:42:14.138Z,93.92
2022-10-07T07:43:14.106Z,93.71
2022-10-07T07:44:14.108Z,93.71
2022-10-07T07:45:14.095Z,93.82
2022-10-07T07:46:14.184Z,94.08
2022-10-07T07:47:14.074Z,94.38
2022-10-07T07:48:14.243Z,94.29
2022-10-07T07:49:14.032Z,94.29
2022-10-07T07:50:14.031Z,93.98
2022-10-07T07:51:14.013Z,93.77
2022-10-07T07:52:14.004Z,93.67
2022-10-07T07:53:13.976Z,93.98
2022-10-07T07:54:13.973Z,94.08
2022-10-07T07:55:13.974Z,93.98
2022-10-07T07:56:13.975Z,94.18
2022-10-07T07:57:13.955Z,93.98
2022-10-07T07:58:13.948Z,93.98
2022-10-07T07:59:13.917Z,93.88
2022-10-07T08:00:13.951Z,93.88
2022-10-07T08:01:13.922Z,93.88
2022-10-07T08:02:13.901Z,93.77
2022-10-07T08:03:13.847Z,92.65
2022-10-07T08:04:13.835Z,92.35
2022-10-07T08:05:13.855Z,92.14
2022-10-07T08:06:13.820Z,92.61
2022-10-07T08:07:13.799Z,93.22
2022-10-07T08:08:13.856Z,93.22
2022-10-07T08:09:13.773Z,93.32
2022-10-07T08:10:13.768Z,93.84
2022-10-07T08:11:13.738Z,93.84
2022-10-07T08:12:13.888Z,93.84
2022-10-07T08:13:13.984Z,94.04
2022-10-07T08:14:13.708Z,94.14
2022-10-07T08:15:13.884Z,94.30
2022-10-07T08:16:13.794Z,94.30
2022-10-07T08:17:13.666Z,94.20
2022-10-07T08:18:13.680Z,93.99
2022-10-07T08:19:13.686Z,93.99
2022-10-07T08:20:13.752Z,94.09
2022-10-07T08:21:13.676Z,93.79
2022-10-07T08:22:13.625Z,93.48
2022-10-07T08:23:13.685Z,93.69
2022-10-07T08:24:13.582Z,92.87
2022-10-07T08:25:13.564Z,91.81
2022-10-07T08:26:13.559Z,92.42
2022-10-07T08:27:13.544Z,93.13
2022-10-07T08:28:13.599Z,93.13
2022-10-07T08:29:13.566Z,93.24
2022-10-07T08:30:13.687Z,92.83
2022-10-07T08:31:13.500Z,92.93
2022-10-07T08:32:13.493Z,92.01
2022-10-07T08:33:13.452Z,91.09
2022-10-07T08:34:13.454Z,90.69
2022-10-07T08:35:13.441Z,91.71
2022-10-07T08:36:13.423Z,92.52
2022-10-07T08:37:13.420Z,92.89
2022-10-07T08:38:14.603Z,92.48
2022-10-07T08:39:13.409Z,92.58
2022-10-07T08:40:13.394Z,92.48
2022-10-07T08:41:13.371Z,92.38
2022-10-07T08:42:13.424Z,92.58
2022-10-07T08:43:13.368Z,92.89
2022-10-07T08:44:16.756Z,92.99
2022-10-07T08:45:13.306Z,93.09
2022-10-07T08:46:13.335Z,93.09
2022-10-07T08:47:13.347Z,93.15
2022-10-07T08:48:13.272Z,93.05
2022-10-07T08:49:13.248Z,92.44
2022-10-07T08:50:18.290Z,92.44
2022-10-07T08:51:14.239Z,92.44
2022-10-07T08:52:13.269Z,92.54
2022-10-07T08:53:13.225Z,92.94
2022-10-07T08:54:13.205Z,92.44
2022-10-07T08:55:13.184Z,92.13
2022-10-07T08:56:13.169Z,92.44
2022-10-07T08:57:13.156Z,92.09
2022-10-07T08:58:13.139Z,91.88
2022-10-07T08:59:13.141Z,91.99
2022-10-07T09:00:13.126Z,92.19
2022-10-07T09:01:13.140Z,92.40
2022-10-07T09:02:13.093Z,92.19
2022-10-07T09:03:13.065Z,92.09
2022-10-07T09:04:13.081Z,92.60
2022-10-07T09:05:13.055Z,91.58
2022-10-07T09:06:13.046Z,91.03
2022-10-07T09:07:13.034Z,91.13
2022-10-07T09:08:13.020Z,91.43
2022-10-07T09:09:13.020Z,91.53
2022-10-07T09:10:12.973Z,91.94
2022-10-07T09:11:12.974Z,91.94
2022-10-07T09:12:12.987Z,91.33
2022-10-07T09:13:12.942Z,91.53
2022-10-07T09:14:13.243Z,90.92
2022-10-07T09:15:12.911Z,91.09
2022-10-07T09:16:13.009Z,90.78
2022-10-07T09:17:12.894Z,90.88
2022-10-07T09:18:12.882Z,91.39
2022-10-07T09:19:12.871Z,91.09
2022-10-07T09:20:12.851Z,90.37
2022-10-07T09:21:12.836Z,89.76
2022-10-07T09:22:12.859Z,89.46
2022-10-07T09:23:12.823Z,89.26
2022-10-07T09:24:12.802Z,89.05
2022-10-07T09:25:12.822Z,89.05
2022-10-07T09:26:12.771Z,88.81
2022-10-07T09:27:12.790Z,89.11
2022-10-07T09:28:12.833Z,89.11
2022-10-07T09:29:12.758Z,88.30
2022-10-07T09:30:12.799Z,88.50
2022-10-07T09:31:12.762Z,88.81
2022-10-07T09:32:12.719Z,88.71
2022-10-07T09:33:12.684Z,88.60
2022-10-07T09:34:12.684Z,88.60
2022-10-07T09:35:12.667Z,88.60
2022-10-07T09:36:12.664Z,88.67
2022-10-07T09:37:12.640Z,89.17
2022-10-07T09:38:12.642Z,89.28
2022-10-07T09:39:12.606Z,89.07
2022-10-07T09:40:12.606Z,89.07
2022-10-07T09:41:12.587Z,88.97
2022-10-07T09:42:12.576Z,88.46
2022-10-07T09:43:12.582Z,88.36
2022-10-07T09:44:12.535Z,88.46
2022-10-07T09:45:12.558Z,88.42
2022-10-07T09:46:12.556Z,88.42
2022-10-07T09:47:12.503Z,88.42
2022-10-07T09:48:12.504Z,88.82
2022-10-07T09:49:12.496Z,88.73
2022-10-07T09:50:12.484Z,87.81
2022-10-07T09:51:12.453Z,88.12
2022-10-07T09:52:12.502Z,88.42
2022-10-07T09:53:12.432Z,88.73
2022-10-07T09:54:12.417Z,88.12
2022-10-07T09:55:12.611Z,88.07
2022-10-07T09:56:12.441Z,88.07
2022-10-07T09:57:16.816Z,88.28
2022-10-07T09:58:13.374Z,88.07
2022-10-07T09:59:12.364Z,88.07
2022-10-07T10:00:12.338Z,88.48
2022-10-07T10:01:12.323Z,88.68
2022-10-07T10:02:12.421Z,88.68
2022-10-07T10:03:12.368Z,88.89
2022-10-07T10:04:12.301Z,89.09
2022-10-07T10:05:12.279Z,89.15
2022-10-07T10:06:12.290Z,89.15
2022-10-07T10:07:12.269Z,88.95
2022-10-07T10:08:12.232Z,88.54
2022-10-07T10:09:14.070Z,87.93
2022-10-07T10:10:12.291Z,87.43
2022-10-07T10:11:12.223Z,88.03
2022-10-07T10:12:12.174Z,88.49
2022-10-07T10:13:12.167Z,88.40
2022-10-07T10:14:12.159Z,88.29
2022-10-07T10:15:12.157Z,88.09
2022-10-07T10:16:12.189Z,87.89
2022-10-07T10:17:12.167Z,87.79
2022-10-07T10:18:12.096Z,87.59
2022-10-07T10:19:12.132Z,87.89
2022-10-07T10:20:12.085Z,87.08
2022-10-07T10:21:12.067Z,86.22
2022-10-07T10:22:12.052Z,86.33
2022-10-07T10:23:12.073Z,86.33
2022-10-07T10:24:12.070Z,87.14
2022-10-07T10:25:12.048Z,88.05
2022-10-07T10:26:11.997Z,87.85
2022-10-07T10:27:11.999Z,86.73
2022-10-07T10:28:12.003Z,86.33
2022-10-07T10:29:11.986Z,86.43
2022-10-07T10:30:12.012Z,85.93
2022-10-07T10:31:12.089Z,87.24
2022-10-07T10:32:11.939Z,87.04
2022-10-07T10:33:11.997Z,86.73
2022-10-07T10:34:11.939Z,86.49
2022-10-07T10:35:11.890Z,86.39
2022-10-07T10:36:11.928Z,86.79
2022-10-07T10:37:14.527Z,87.00
2022-10-07T10:38:11.868Z,87.51
2022-10-07T10:39:11.857Z,87.91
2022-10-07T10:40:11.847Z,88.21
2022-10-07T10:41:11.817Z,88.82
2022-10-07T10:42:11.796Z,87.91
2022-10-07T10:43:11.794Z,87.71
2022-10-07T10:44:11.836Z,87.51
2022-10-07T10:45:11.778Z,85.88
2022-10-07T10:46:11.839Z,86.39
2022-10-07T10:47:11.755Z,85.78
2022-10-07T10:48:11.735Z,85.78
2022-10-07T10:49:11.736Z,85.84
2022-10-07T10:50:11.804Z,86.55
2022-10-07T10:51:11.802Z,87.05
2022-10-07T10:52:13.660Z,86.85
2022-10-07T10:53:11.717Z,87.36
2022-10-07T10:54:15.660Z,87.46
2022-10-07T10:55:11.680Z,87.36
2022-10-07T10:56:11.873Z,86.15
2022-10-07T10:57:11.613Z,85.74
2022-10-07T10:58:11.623Z,85.74
2022-10-07T10:59:11.600Z,85.33
2022-10-07T11:00:11.604Z,86.05
2022-10-07T11:01:11.557Z,86.41
2022-10-07T11:02:11.671Z,86.71
2022-10-07T11:03:11.599Z,86.82
2022-10-07T11:04:11.596Z,87.12
2022-10-07T11:05:11.511Z,86.21
2022-10-07T11:06:11.550Z,86.61
2022-10-07T11:07:11.492Z,85.50
2022-10-07T11:08:11.469Z,85.30
2022-10-07T11:09:11.471Z,85.46
2022-10-07T11:10:11.458Z,85.66
2022-10-07T11:11:11.439Z,84.85
2022-10-07T11:12:11.409Z,85.16
2022-10-07T11:13:11.427Z,84.65
2022-10-07T11:14:12.366Z,85.05
2022-10-07T11:15:11.389Z,85.66
2022-10-07T11:16:11.462Z,85.25
2022-10-07T11:17:11.430Z,84.95
2022-10-07T11:18:11.367Z,84.20
2022-10-07T11:19:11.349Z,85.52
2022-10-07T11:20:11.317Z,83.40
2022-10-07T11:21:11.318Z,84.00
2022-10-07T11:22:11.307Z,83.70
2022-10-07T11:23:11.305Z,83.50
2022-10-07T11:24:11.270Z,83.60
2022-10-07T11:25:11.267Z,84.31
2022-10-07T11:26:11.236Z,83.70
2022-10-07T11:27:11.256Z,84.51
2022-10-07T11:28:11.243Z,84.41
2022-10-07T11:29:11.216Z,85.42
2022-10-07T11:30:11.227Z,85.72
2022-10-07T11:31:11.244Z,84.00
2022-10-07T11:32:11.212Z,83.29
2022-10-07T11:33:11.146Z,85.38
2022-10-07T11:34:11.155Z,83.26
2022-10-07T11:35:11.150Z,83.15
2022-10-07T11:36:11.154Z,83.56
2022-10-07T11:37:11.157Z,84.67
2022-10-07T11:38:11.112Z,84.97
2022-10-07T11:39:11.127Z,85.58
2022-10-07T11:40:11.134Z,84.57
2022-10-07T11:41:11.052Z,83.66
2022-10-07T11:42:11.043Z,84.37
2022-10-07T11:43:11.012Z,84.67
2022-10-07T11:44:11.012Z,82.95
2022-10-07T11:45:10.992Z,82.85
2022-10-07T11:46:11.862Z,84.33
2022-10-07T11:47:11.023Z,84.73
2022-10-07T11:48:10.993Z,84.43
2022-10-07T11:49:10.952Z,84.03
2022-10-07T11:50:10.961Z,84.33
2022-10-07T11:51:10.920Z,83.52
2022-10-07T11:52:10.891Z,83.82
2022-10-07T11:53:10.942Z,84.73
2022-10-07T11:54:10.911Z,83.42
2022-10-07T11:55:10.918Z,82.98
2022-10-07T11:56:10.894Z,82.98
2022-10-07T11:57:10.898Z,83.07
2022-10-07T11:58:10.829Z,82.37
2022-10-07T11:59:10.859Z,82.57
2022-10-07T12:00:10.827Z,82.87
2022-10-07T12:01:10.829Z,83.58
2022-10-07T12:02:14.686Z,83.18
2022-10-07T12:03:11.793Z,83.14
2022-10-07T12:04:10.730Z,82.64
2022-10-07T12:05:10.739Z,81.32
2022-10-07T12:06:10.741Z,81.42
2022-10-07T12:07:10.698Z,82.73
2022-10-07T12:08:10.679Z,83.44
2022-10-07T12:09:10.707Z,82.53
2022-10-07T12:10:10.657Z,82.33
2022-10-07T12:11:10.656Z,81.32
2022-10-07T12:12:10.665Z,80.41
2022-10-07T12:13:10.790Z,81.73
2022-10-07T12:14:10.606Z,81.18
2022-10-07T12:15:10.607Z,79.57
2022-10-07T12:16:10.610Z,80.58
2022-10-07T12:17:10.576Z,82.09
2022-10-07T12:18:10.575Z,82.09
2022-10-07T12:19:10.548Z,82.19
2022-10-07T12:20:10.533Z,82.29
2022-10-07T12:21:10.530Z,80.98
2022-10-07T12:22:10.503Z,81.59
2022-10-07T12:23:10.502Z,81.89
2022-10-07T12:24:10.480Z,82.59
2022-10-07T12:25:11.341Z,82.70
2022-10-07T12:26:10.457Z,83.20
2022-10-07T12:27:10.463Z,83.40
2022-10-07T12:28:10.493Z,80.98
2022-10-07T12:29:10.471Z,79.63
2022-10-07T12:30:10.441Z,80.64
2022-10-07T12:31:10.428Z,80.84
2022-10-07T12:32:10.372Z,81.75
2022-10-07T12:33:10.361Z,81.24
2022-10-07T12:34:10.351Z,80.54
2022-10-07T12:35:10.332Z,79.13
2022-10-07T12:36:10.321Z,80.33
2022-10-07T12:37:10.310Z,78.63
2022-10-07T12:38:10.310Z,79.03
2022-10-07T12:39:10.300Z,79.80
2022-10-07T12:40:10.270Z,79.49
2022-10-07T12:41:10.262Z,80.40
2022-10-07T12:42:10.250Z,80.60
2022-10-07T12:43:10.243Z,80.90
2022-10-07T12:44:10.231Z,80.06
2022-10-07T12:45:10.208Z,80.06
2022-10-07T12:46:10.267Z,80.16
2022-10-07T12:47:12.723Z,80.26
2022-10-07T12:48:10.185Z,80.52
2022-10-07T12:49:10.147Z,80.93
2022-10-07T12:50:10.148Z,78.71
2022-10-07T12:51:10.135Z,79.11
2022-10-07T12:52:10.120Z,79.92
2022-10-07T12:53:10.096Z,79.58
2022-10-07T12:54:10.087Z,79.28
2022-10-07T12:55:10.078Z,78.78
2022-10-07T12:56:10.064Z,78.98